Time;durP1;ratioP1;P1;durP2;ratioP2;P2;SDS_P1;SDS_P2;PMS_P1;PMS_P2;Temp;Humidity;BMP_temperature;BMP_pressure;BME280_temperature;BME280_humidity;BME280_pressure;Samples;Min_cycle;Max_cycle;Signal;HPM_P1;HPM_P2
2022/01/05 00:01:07;;;;;;;0.10;0.10;;;;;;;;;;4809371;29;20046;-92
2022/01/05 00:03:34;;;;;;;0.10;0.10;;;;;;;;;;4779160;29;20375;-91
2022/01/05 00:06:00;;;;;;;0.10;0.10;;;;;;;;;;4794062;29;20134;-91
2022/01/05 00:08:26;;;;;;;0.10;0.10;;;;;;;;;;4808915;29;20159;-90
2022/01/05 00:10:52;;;;;;;0.10;0.10;;;;;;;;;;4779213;29;20057;-91
2022/01/05 00:13:19;;;;;;;0.10;0.10;;;;;;;;;;4824371;29;20384;-91
2022/01/05 00:15:45;;;;;;;0.10;0.10;;;;;;;;;;4779255;29;20104;-91
2022/01/05 00:18:10;;;;;;;0.00;0.00;;;;;;;;;;4779134;29;20397;-90
2022/01/05 00:20:37;;;;;;;0.00;0.00;;;;;;;;;;4823945;29;20502;-90
2022/01/05 00:23:03;;;;;;;0.10;0.10;;;;;;;;;;4807407;29;20046;-89
2022/01/05 00:25:29;;;;;;;0.00;0.00;;;;;;;;;;4808636;29;20278;-90
2022/01/05 00:27:55;;;;;;;0.10;0.10;;;;;;;;;;4778400;29;20162;-90
2022/01/05 00:30:21;;;;;;;0.10;0.10;;;;;;;;;;4779163;29;20161;-90
2022/01/05 00:32:47;;;;;;;0.10;0.10;;;;;;;;;;4778728;29;20156;-90
2022/01/05 00:35:13;;;;;;;0.10;0.10;;;;;;;;;;4808197;29;20523;-90
2022/01/05 00:37:39;;;;;;;0.10;0.10;;;;;;;;;;4778659;29;20039;-91
2022/01/05 00:40:06;;;;;;;0.10;0.10;;;;;;;;;;4808395;29;20278;-91
2022/01/05 00:42:32;;;;;;;0.10;0.10;;;;;;;;;;4778645;29;20068;-91
2022/01/05 00:44:58;;;;;;;0.10;0.10;;;;;;;;;;4778605;29;20455;-90
2022/01/05 00:47:24;;;;;;;0.10;0.10;;;;;;;;;;4778652;29;20046;-90
2022/01/05 00:49:50;;;;;;;0.10;0.10;;;;;;;;;;4778438;29;20187;-90
2022/01/05 00:52:16;;;;;;;0.10;0.10;;;;;;;;;;4778282;29;20091;-91
2022/01/05 00:54:42;;;;;;;0.03;0.03;;;;;;;;;;4778617;29;20053;-92
2022/01/05 00:57:08;;;;;;;0.10;0.10;;;;;;;;;;4778655;29;20038;-91
2022/01/05 00:59:34;;;;;;;0.10;0.10;;;;;;;;;;4778403;29;20046;-91
2022/01/05 01:02:00;;;;;;;0.10;0.10;;;;;;;;;;4808803;29;20038;-91
2022/01/05 01:04:26;;;;;;;0.00;0.00;;;;;;;;;;4808980;29;20103;-90
2022/01/05 01:06:54;;;;;;;0.10;0.10;;;;;;;;;;4808157;29;20046;-90
2022/01/05 01:09:20;;;;;;;0.00;0.00;;;;;;;;;;4807608;29;20050;-90
2022/01/05 01:11:46;;;;;;;0.10;0.10;;;;;;;;;;4792706;29;20050;-89
2022/01/05 01:14:12;;;;;;;0.00;0.00;;;;;;;;;;4807707;29;20129;-89
2022/01/05 01:16:38;;;;;;;0.00;0.00;;;;;;;;;;4807802;29;20126;-89
2022/01/05 01:19:04;;;;;;;0.10;0.10;;;;;;;;;;4807713;29;20108;-89
2022/01/05 01:21:30;;;;;;;0.10;0.10;;;;;;;;;;4807226;29;20042;-90
2022/01/05 01:23:56;;;;;;;0.00;0.00;;;;;;;;;;4778139;29;20106;-90
2022/01/05 01:26:23;;;;;;;0.10;0.10;;;;;;;;;;4777829;29;20333;-89
2022/01/05 01:28:49;;;;;;;0.10;0.10;;;;;;;;;;4792516;29;20054;-89
2022/01/05 01:31:15;;;;;;;0.00;0.00;;;;;;;;;;4777630;29;20054;-89
2022/01/05 01:33:40;;;;;;;0.10;0.10;;;;;;;;;;4776848;29;20502;-89
2022/01/05 01:36:06;;;;;;;0.10;0.10;;;;;;;;;;4807620;29;20042;-90
2022/01/05 01:38:32;;;;;;;0.10;0.10;;;;;;;;;;4777724;29;20054;-90
2022/01/05 01:40:58;;;;;;;0.00;0.00;;;;;;;;;;4777475;29;20054;-90
2022/01/05 01:43:24;;;;;;;0.03;0.03;;;;;;;;;;4777457;29;20054;-90
2022/01/05 01:45:50;;;;;;;0.00;0.00;;;;;;;;;;4807262;29;20050;-89
2022/01/05 01:48:16;;;;;;;0.00;0.00;;;;;;;;;;4807131;29;20049;-90
2022/01/05 01:50:42;;;;;;;0.00;0.00;;;;;;;;;;4777450;29;20057;-89
2022/01/05 01:53:08;;;;;;;0.10;0.10;;;;;;;;;;4777118;29;20106;-89
2022/01/05 01:55:37;;;;;;;0.10;0.10;;;;;;;;;;4806973;29;20042;-89
2022/01/05 01:58:03;;;;;;;0.00;0.00;;;;;;;;;;4777633;29;20054;-90
2022/01/05 02:00:29;;;;;;;0.05;0.05;;;;;;;;;;4776727;29;20127;-89
2022/01/05 02:02:56;;;;;;;0.10;0.10;;;;;;;;;;4776787;29;20085;-88
2022/01/05 02:05:22;;;;;;;0.10;0.10;;;;;;;;;;4807122;29;20180;-89
2022/01/05 02:07:48;;;;;;;0.10;0.10;;;;;;;;;;4777125;29;20042;-88
2022/01/05 02:10:14;;;;;;;0.08;0.08;;;;;;;;;;4807138;29;20046;-89
2022/01/05 02:12:40;;;;;;;0.00;0.00;;;;;;;;;;4776918;29;20110;-89
2022/01/05 02:15:06;;;;;;;0.10;0.10;;;;;;;;;;4806598;29;20058;-88
2022/01/05 02:17:49;;;;;;;0.10;0.10;;;;;;;;;;4806987;29;20444;-89
2022/01/05 02:20:16;;;;;;;0.10;0.10;;;;;;;;;;4778921;29;20470;-90
2022/01/05 02:22:42;;;;;;;0.08;0.08;;;;;;;;;;4777181;29;20129;-90
2022/01/05 02:25:08;;;;;;;0.10;0.10;;;;;;;;;;4777295;29;20150;-90
2022/01/05 02:27:34;;;;;;;0.10;0.10;;;;;;;;;;4806593;29;20054;-90
2022/01/05 02:30:00;;;;;;;0.00;0.00;;;;;;;;;;4806658;29;20461;-90
2022/01/05 02:32:26;;;;;;;0.00;0.00;;;;;;;;;;4776879;29;20060;-89
2022/01/05 02:34:54;;;;;;;0.10;0.10;;;;;;;;;;4776737;29;20138;-90
2022/01/05 02:37:20;;;;;;;0.00;0.00;;;;;;;;;;4822025;29;20499;-89
2022/01/05 02:39:46;;;;;;;0.10;0.10;;;;;;;;;;4821727;29;20062;-89
2022/01/05 02:42:12;;;;;;;0.10;0.10;;;;;;;;;;4776764;29;20536;-89
2022/01/05 02:44:44;;;;;;;0.10;0.10;;;;;;;;;;4776294;29;20129;-90
2022/01/05 02:47:09;;;;;;;0.10;0.10;;;;;;;;;;4794752;29;20060;-90
2022/01/05 02:49:36;;;;;;;0.10;0.10;;;;;;;;;;4780321;29;20050;-89
2022/01/05 02:52:02;;;;;;;0.10;0.10;;;;;;;;;;4780213;29;20050;-90
2022/01/05 02:54:28;;;;;;;0.10;0.10;;;;;;;;;;4809993;29;20133;-89
2022/01/05 02:56:54;;;;;;;0.10;0.10;;;;;;;;;;4810258;29;20077;-90
2022/01/05 02:59:20;;;;;;;0.10;0.10;;;;;;;;;;4780017;29;20035;-90
2022/01/05 03:01:46;;;;;;;0.10;0.10;;;;;;;;;;4809868;29;20111;-90
2022/01/05 03:04:12;;;;;;;0.10;0.10;;;;;;;;;;4795091;29;20054;-89
2022/01/05 03:06:38;;;;;;;0.10;0.10;;;;;;;;;;4809865;29;20057;-89
2022/01/05 03:09:04;;;;;;;0.00;0.00;;;;;;;;;;4809861;29;20050;-90
2022/01/05 03:11:30;;;;;;;0.10;0.10;;;;;;;;;;4780066;29;20533;-90
2022/01/05 03:13:56;;;;;;;0.10;0.10;;;;;;;;;;4809865;29;20225;-90
2022/01/05 03:16:22;;;;;;;0.10;0.10;;;;;;;;;;4794817;29;20415;-91
2022/01/05 03:18:48;;;;;;;0.15;0.15;;;;;;;;;;4809818;29;20122;-90
2022/01/05 03:21:14;;;;;;;0.00;0.00;;;;;;;;;;4810043;29;20081;-90
2022/01/05 03:23:41;;;;;;;0.10;0.10;;;;;;;;;;4779647;29;20490;-91
2022/01/05 03:26:07;;;;;;;0.00;0.00;;;;;;;;;;4779779;29;20048;-91
2022/01/05 03:28:35;;;;;;;0.00;0.00;;;;;;;;;;4809731;29;20093;-90
2022/01/05 03:31:01;;;;;;;0.05;0.05;;;;;;;;;;4779658;29;20053;-90
2022/01/05 03:33:27;;;;;;;0.10;0.10;;;;;;;;;;4809325;29;20046;-90
2022/01/05 03:35:53;;;;;;;0.00;0.00;;;;;;;;;;4779527;29;20046;-90
2022/01/05 03:38:19;;;;;;;0.00;0.00;;;;;;;;;;4779431;29;20171;-90
2022/01/05 03:40:46;;;;;;;0.00;0.00;;;;;;;;;;4779329;29;20066;-90
2022/01/05 03:43:12;;;;;;;0.10;0.10;;;;;;;;;;4794203;29;20051;-89
2022/01/05 03:45:38;;;;;;;0.10;0.10;;;;;;;;;;4823991;29;20491;-90
2022/01/05 03:48:05;;;;;;;0.00;0.00;;;;;;;;;;4809099;29;20050;-89
2022/01/05 03:50:31;;;;;;;0.10;0.10;;;;;;;;;;4779416;29;20403;-90
2022/01/05 03:52:57;;;;;;;0.10;0.10;;;;;;;;;;4809069;29;20038;-90
2022/01/05 03:55:23;;;;;;;0.10;0.10;;;;;;;;;;4778972;29;20042;-90
2022/01/05 03:57:49;;;;;;;0.00;0.00;;;;;;;;;;4808598;29;20042;-90
2022/01/05 04:00:15;;;;;;;0.03;0.03;;;;;;;;;;4808849;29;20528;-89
2022/01/05 04:02:41;;;;;;;0.10;0.10;;;;;;;;;;4778732;29;20047;-90
2022/01/05 04:05:07;;;;;;;0.10;0.10;;;;;;;;;;4808840;29;20046;-88
2022/01/05 04:07:33;;;;;;;0.00;0.00;;;;;;;;;;4824079;29;20086;-91
2022/01/05 04:09:59;;;;;;;0.03;0.03;;;;;;;;;;4779019;29;20498;-90
2022/01/05 04:12:25;;;;;;;0.10;0.10;;;;;;;;;;4778907;29;20460;-90
2022/01/05 04:14:51;;;;;;;0.10;0.10;;;;;;;;;;4808715;29;20441;-90
2022/01/05 04:17:17;;;;;;;0.10;0.10;;;;;;;;;;4823596;29;20042;-91
2022/01/05 04:19:43;;;;;;;0.10;0.10;;;;;;;;;;4778631;29;20105;-90
2022/01/05 04:22:09;;;;;;;0.10;0.10;;;;;;;;;;4778949;29;20043;-90
2022/01/05 04:24:35;;;;;;;0.00;0.00;;;;;;;;;;4808688;29;20586;-90
2022/01/05 04:27:01;;;;;;;0.10;0.10;;;;;;;;;;4808370;29;20057;-90
2022/01/05 04:29:27;;;;;;;0.10;0.10;;;;;;;;;;4808595;29;20058;-89
2022/01/05 04:31:55;;;;;;;0.00;0.00;;;;;;;;;;4808887;29;20128;-95
2022/01/05 04:34:21;;;;;;;0.00;0.00;;;;;;;;;;4778869;29;20075;-91
2022/01/05 04:36:46;;;;;;;0.00;0.00;;;;;;;;;;4778634;29;20042;-91
2022/01/05 04:39:12;;;;;;;0.10;0.10;;;;;;;;;;4808402;29;20046;-90
2022/01/05 04:41:38;;;;;;;0.10;0.10;;;;;;;;;;4808727;29;20407;-90
2022/01/05 04:44:04;;;;;;;0.00;0.00;;;;;;;;;;4778735;29;20042;-92
2022/01/05 04:46:31;;;;;;;0.10;0.10;;;;;;;;;;4793293;29;20046;-90
2022/01/05 04:48:57;;;;;;;0.00;0.00;;;;;;;;;;4823454;29;20051;-88
2022/01/05 04:51:23;;;;;;;0.10;0.10;;;;;;;;;;4823576;29;20045;-91
2022/01/05 04:53:49;;;;;;;0.03;0.03;;;;;;;;;;4778335;29;20494;-90
2022/01/05 04:56:15;;;;;;;0.10;0.10;;;;;;;;;;4778415;29;20053;-91
2022/01/05 04:58:40;;;;;;;0.10;0.10;;;;;;;;;;4778468;29;20130;-91
2022/01/05 05:01:07;;;;;;;0.00;0.00;;;;;;;;;;4808106;29;20046;-91
2022/01/05 05:03:33;;;;;;;0.10;0.10;;;;;;;;;;4807864;29;20053;-90
2022/01/05 05:05:59;;;;;;;0.10;0.10;;;;;;;;;;4789980;29;20047;-90
2022/01/05 05:08:25;;;;;;;0.00;0.00;;;;;;;;;;4791272;29;20048;-91
2022/01/05 05:10:51;;;;;;;0.10;0.10;;;;;;;;;;4807677;29;20052;-89
2022/01/05 05:13:17;;;;;;;0.10;0.10;;;;;;;;;;4777794;29;20049;-91
2022/01/05 05:15:42;;;;;;;0.10;0.10;;;;;;;;;;4777915;29;20407;-91
2022/01/05 05:18:09;;;;;;;0.10;0.10;;;;;;;;;;4823238;29;20130;-90
2022/01/05 05:20:35;;;;;;;0.10;0.10;;;;;;;;;;4807603;29;20042;-90
2022/01/05 05:23:01;;;;;;;0.00;0.00;;;;;;;;;;4777598;29;20069;-90
2022/01/05 05:25:27;;;;;;;0.10;0.10;;;;;;;;;;4807484;29;20112;-90
2022/01/05 05:27:53;;;;;;;0.10;0.10;;;;;;;;;;4777831;29;20507;-90
2022/01/05 05:30:19;;;;;;;0.00;0.00;;;;;;;;;;4777765;29;20371;-90
2022/01/05 05:32:45;;;;;;;0.10;0.10;;;;;;;;;;4777474;29;20491;-90
2022/01/05 05:35:11;;;;;;;0.10;0.10;;;;;;;;;;4807198;29;20043;-91
2022/01/05 05:37:37;;;;;;;0.10;0.10;;;;;;;;;;4807423;29;20464;-90
2022/01/05 05:40:03;;;;;;;0.10;0.10;;;;;;;;;;4807407;29;20504;-91
2022/01/05 05:42:29;;;;;;;0.10;0.10;;;;;;;;;;4807618;29;20113;-92
2022/01/05 05:44:55;;;;;;;0.03;0.03;;;;;;;;;;4777731;29;20102;-91
2022/01/05 05:47:21;;;;;;;0.10;0.10;;;;;;;;;;4807778;29;20046;-91
2022/01/05 05:49:48;;;;;;;0.03;0.03;;;;;;;;;;4807463;29;20149;-91
2022/01/05 05:52:14;;;;;;;0.10;0.10;;;;;;;;;;4777542;29;20057;-92
2022/01/05 05:54:40;;;;;;;0.00;0.00;;;;;;;;;;4822965;29;20049;-91
2022/01/05 05:57:07;;;;;;;0.10;0.10;;;;;;;;;;4792601;29;20440;-91
2022/01/05 05:59:33;;;;;;;0.00;0.00;;;;;;;;;;4777440;29;20050;-91
2022/01/05 06:01:59;;;;;;;0.10;0.10;;;;;;;;;;4806948;29;20049;-91
2022/01/05 06:04:25;;;;;;;0.10;0.10;;;;;;;;;;4807169;29;20046;-91
2022/01/05 06:06:51;;;;;;;0.10;0.10;;;;;;;;;;4777233;29;20517;-91
2022/01/05 06:09:17;;;;;;;0.10;0.10;;;;;;;;;;4807032;29;20133;-91
2022/01/05 06:11:43;;;;;;;0.00;0.00;;;;;;;;;;4777327;29;20487;-91
2022/01/05 06:14:09;;;;;;;0.00;0.00;;;;;;;;;;4807130;29;20129;-91
2022/01/05 06:16:35;;;;;;;0.10;0.10;;;;;;;;;;4777170;29;20056;-90
2022/01/05 06:19:03;;;;;;;0.10;0.10;;;;;;;;;;4806213;29;20058;-91
2022/01/05 06:21:29;;;;;;;0.10;0.10;;;;;;;;;;4777196;29;20077;-91
2022/01/05 06:23:55;;;;;;;0.10;0.10;;;;;;;;;;4777176;29;20053;-91
2022/01/05 06:26:22;;;;;;;0.05;0.05;;;;;;;;;;4776910;29;20510;-90
2022/01/05 06:28:48;;;;;;;0.13;0.13;;;;;;;;;;4792038;29;20050;-90
2022/01/05 06:31:14;;;;;;;0.10;0.10;;;;;;;;;;4806645;29;20070;-90
2022/01/05 06:33:40;;;;;;;0.00;0.00;;;;;;;;;;4777080;29;20110;-90
2022/01/05 06:36:06;;;;;;;0.08;0.08;;;;;;;;;;4777042;29;20046;-90
2022/01/05 06:38:32;;;;;;;0.03;0.03;;;;;;;;;;4776863;29;20057;-89
2022/01/05 06:40:58;;;;;;;0.10;0.10;;;;;;;;;;4776640;29;20058;-90
2022/01/05 06:43:24;;;;;;;0.00;0.00;;;;;;;;;;4776627;29;20056;-90
2022/01/05 06:45:50;;;;;;;0.10;0.10;;;;;;;;;;4776794;29;20042;-90
2022/01/05 06:48:16;;;;;;;0.00;0.00;;;;;;;;;;4776770;29;20038;-90
2022/01/05 06:50:42;;;;;;;0.10;0.10;;;;;;;;;;4806762;29;20038;-89
2022/01/05 06:53:08;;;;;;;0.10;0.10;;;;;;;;;;4821488;29;20138;-89
2022/01/05 06:55:34;;;;;;;0.10;0.10;;;;;;;;;;4806560;29;20050;-89
2022/01/05 06:58:00;;;;;;;0.00;0.00;;;;;;;;;;4806763;29;20042;-89
2022/01/05 07:00:27;;;;;;;0.00;0.00;;;;;;;;;;4821894;29;20046;-89
2022/01/05 07:02:53;;;;;;;0.00;0.00;;;;;;;;;;4776526;29;20054;-90
2022/01/05 07:05:19;;;;;;;0.10;0.10;;;;;;;;;;4776691;29;20115;-89
2022/01/05 07:07:46;;;;;;;0.03;0.03;;;;;;;;;;4776763;29;20053;-89
2022/01/05 07:10:12;;;;;;;0.00;0.00;;;;;;;;;;4776676;29;20046;-89
2022/01/05 07:12:38;;;;;;;0.10;0.10;;;;;;;;;;4776598;29;20050;-89
2022/01/05 07:15:04;;;;;;;0.10;0.10;;;;;;;;;;4806133;29;20142;-89
2022/01/05 07:17:30;;;;;;;0.03;0.03;;;;;;;;;;4776512;29;20397;-89
2022/01/05 07:19:56;;;;;;;0.00;0.00;;;;;;;;;;4806155;29;20116;-89
2022/01/05 07:22:22;;;;;;;0.03;0.03;;;;;;;;;;4776765;29;20043;-87
2022/01/05 07:24:48;;;;;;;3.42;0.30;;;;;;;;;;4806130;29;20198;-86
2022/01/05 07:27:14;;;;;;;0.10;0.10;;;;;;;;;;4806248;29;20050;-88
2022/01/05 07:29:43;;;;;;;0.00;0.00;;;;;;;;;;4806309;29;20047;-86
2022/01/05 07:32:09;;;;;;;0.05;0.05;;;;;;;;;;4807222;29;20415;-89
2022/01/05 07:34:35;;;;;;;0.10;0.10;;;;;;;;;;4809175;29;20050;-89
2022/01/05 07:37:01;;;;;;;0.00;0.00;;;;;;;;;;4779650;29;20045;-88
2022/01/05 07:39:27;;;;;;;0.10;0.10;;;;;;;;;;4779401;29;20445;-88
2022/01/05 07:41:53;;;;;;;0.00;0.00;;;;;;;;;;4809401;29;20050;-88
2022/01/05 07:44:19;;;;;;;0.00;0.00;;;;;;;;;;4794391;29;20050;-90
2022/01/05 07:46:45;;;;;;;0.00;0.00;;;;;;;;;;4794377;29;20388;-89
2022/01/05 07:49:11;;;;;;;0.10;0.10;;;;;;;;;;4779264;29;20050;-88
2022/01/05 07:51:37;;;;;;;0.00;0.00;;;;;;;;;;4811405;29;20079;-89
2022/01/05 07:54:03;;;;;;;0.10;0.10;;;;;;;;;;4814247;29;20054;-89
2022/01/05 07:56:29;;;;;;;0.10;0.10;;;;;;;;;;4828409;29;20091;-90
2022/01/05 07:58:55;;;;;;;0.00;0.00;;;;;;;;;;4793363;29;20043;-89
2022/01/05 08:01:21;;;;;;;0.00;0.00;;;;;;;;;;4794111;29;20078;-89
2022/01/05 08:03:47;;;;;;;0.32;0.32;;;;;;;;;;4779113;29;20042;-89
2022/01/05 08:06:13;;;;;;;0.03;0.03;;;;;;;;;;4779164;29;20137;-88
2022/01/05 08:08:39;;;;;;;0.00;0.00;;;;;;;;;;4809230;29;20044;-89
2022/01/05 08:11:05;;;;;;;0.00;0.00;;;;;;;;;;4778989;29;20042;-88
2022/01/05 08:13:31;;;;;;;0.10;0.10;;;;;;;;;;4824333;29;20423;-92
2022/01/05 08:15:57;;;;;;;0.08;0.08;;;;;;;;;;4779233;29;20169;-88
2022/01/05 08:18:23;;;;;;;0.00;0.00;;;;;;;;;;4808727;29;20455;-85
2022/01/05 08:20:49;;;;;;;0.00;0.00;;;;;;;;;;4823812;29;20050;-86
2022/01/05 08:23:19;;;;;;;0.05;0.05;;;;;;;;;;4793713;29;20070;-85
2022/01/05 08:25:45;;;;;;;0.10;0.10;;;;;;;;;;4823702;29;20100;-83
2022/01/05 08:28:11;;;;;;;0.00;0.00;;;;;;;;;;4808506;29;20046;-85
2022/01/05 08:30:37;;;;;;;0.10;0.10;;;;;;;;;;4778534;29;20574;-85
2022/01/05 08:33:03;;;;;;;0.00;0.00;;;;;;;;;;4823427;29;20124;-90
2022/01/05 08:35:29;;;;;;;0.00;0.00;;;;;;;;;;4808484;29;20133;-89
2022/01/05 08:37:55;;;;;;;0.10;0.10;;;;;;;;;;4778538;29;20448;-89
2022/01/05 08:40:22;;;;;;;0.00;0.00;;;;;;;;;;4808647;29;20065;-89
2022/01/05 08:42:48;;;;;;;0.00;0.00;;;;;;;;;;4792752;29;20053;-88
2022/01/05 08:45:15;;;;;;;0.00;0.00;;;;;;;;;;4808095;29;20133;-87
2022/01/05 08:47:42;;;;;;;0.00;0.00;;;;;;;;;;4778360;29;20046;-87
2022/01/05 08:50:08;;;;;;;0.10;0.10;;;;;;;;;;4808330;29;20054;-88
2022/01/05 08:52:34;;;;;;;0.00;0.00;;;;;;;;;;4808033;29;20052;-87
2022/01/05 08:55:00;;;;;;;0.10;0.10;;;;;;;;;;4808062;29;20382;-88
2022/01/05 08:57:26;;;;;;;0.00;0.00;;;;;;;;;;4808196;29;20054;-88
2022/01/05 08:59:52;;;;;;;0.08;0.08;;;;;;;;;;4808226;29;20110;-87
2022/01/05 09:02:19;;;;;;;0.10;0.10;;;;;;;;;;4808177;29;20074;-87
2022/01/05 09:04:44;;;;;;;0.10;0.10;;;;;;;;;;4807869;29;20050;-87
2022/01/05 09:07:10;;;;;;;0.10;0.10;;;;;;;;;;4807986;29;20098;-88
2022/01/05 09:09:37;;;;;;;0.00;0.00;;;;;;;;;;4777997;29;20447;-88
2022/01/05 09:12:03;;;;;;;0.00;0.00;;;;;;;;;;4807360;29;20046;-91
2022/01/05 09:14:29;;;;;;;0.10;0.10;;;;;;;;;;4777949;29;20484;-90
2022/01/05 09:16:55;;;;;;;0.00;0.00;;;;;;;;;;4778061;29;20487;-89
2022/01/05 09:19:21;;;;;;;0.00;0.00;;;;;;;;;;4807651;29;20058;-87
2022/01/05 09:21:49;;;;;;;0.10;0.10;;;;;;;;;;4792254;29;20078;-89
2022/01/05 09:24:18;;;;;;;0.10;0.10;;;;;;;;;;4792340;29;20050;-87
2022/01/05 09:26:44;;;;;;;0.10;0.10;;;;;;;;;;4807134;29;20111;-92
2022/01/05 09:29:10;;;;;;;0.10;0.10;;;;;;;;;;4777536;29;20050;-89
2022/01/05 09:31:36;;;;;;;0.10;0.10;;;;;;;;;;4777409;29;20058;-88
2022/01/05 09:34:02;;;;;;;0.03;0.03;;;;;;;;;;4807254;29;20086;-87
2022/01/05 09:36:35;;;;;;;0.10;0.10;;;;;;;;;;4807437;29;20476;-87
2022/01/05 09:41:57;;;;;;;0.10;0.10;;;;;;;;;;4807106;29;20061;-87
2022/01/05 09:44:27;;;;;;;0.45;0.10;;;;;;;;;;4807446;29;20046;-88
2022/01/05 09:47:15;;;;;;;0.00;0.00;;;;;;;;;;4807418;29;20068;-87
2022/01/05 09:49:49;;;;;;;0.10;0.10;;;;;;;;;;4777275;29;20050;-87
2022/01/05 09:52:15;;;;;;;0.10;0.10;;;;;;;;;;4792107;29;20576;-87
2022/01/05 09:54:42;;;;;;;0.10;0.10;;;;;;;;;;4791979;29;20082;-87
2022/01/05 09:57:09;;;;;;;0.00;0.00;;;;;;;;;;4792368;29;20046;-87
2022/01/05 09:59:35;;;;;;;0.00;0.00;;;;;;;;;;4807014;29;20457;-87
2022/01/05 10:02:02;;;;;;;0.10;0.10;;;;;;;;;;4777050;29;20043;-88
2022/01/05 10:04:28;;;;;;;0.10;0.10;;;;;;;;;;4806844;29;20126;-88
2022/01/05 10:06:54;;;;;;;0.00;0.00;;;;;;;;;;4777098;29;20054;-89
2022/01/05 10:09:20;;;;;;;0.00;0.00;;;;;;;;;;4776974;29;20053;-89
2022/01/05 10:11:46;;;;;;;0.10;0.10;;;;;;;;;;4806685;29;20101;-88
2022/01/05 10:14:13;;;;;;;0.00;0.00;;;;;;;;;;4777066;29;20042;-88
2022/01/05 10:16:39;;;;;;;0.10;0.10;;;;;;;;;;4777058;29;20471;-88
2022/01/05 10:19:08;;;;;;;0.00;0.00;;;;;;;;;;4806591;29;20042;-88
2022/01/05 10:21:35;;;;;;;0.00;0.00;;;;;;;;;;4776900;29;20050;-88
2022/01/05 10:24:01;;;;;;;0.00;0.00;;;;;;;;;;4776923;29;20425;-88
2022/01/05 10:26:27;;;;;;;0.00;0.00;;;;;;;;;;4776763;29;20136;-88
2022/01/05 10:28:57;;;;;;;0.10;0.10;;;;;;;;;;4792272;29;20046;-88
2022/01/05 10:31:30;;;;;;;0.00;0.00;;;;;;;;;;4776827;29;20069;-88
2022/01/05 10:33:57;;;;;;;0.10;0.10;;;;;;;;;;4806598;29;20052;-88
2022/01/05 10:36:23;;;;;;;0.10;0.10;;;;;;;;;;4776661;29;20437;-88
2022/01/05 10:38:52;;;;;;;0.47;0.47;;;;;;;;;;4806568;29;20397;-88
2022/01/05 10:41:18;;;;;;;0.10;0.10;;;;;;;;;;4806267;29;20059;-88
2022/01/05 10:44:03;;;;;;;0.00;0.00;;;;;;;;;;4791581;29;20530;-88
2022/01/05 10:46:36;;;;;;;0.10;0.10;;;;;;;;;;4821759;29;20054;-88
2022/01/05 10:49:03;;;;;;;0.10;0.10;;;;;;;;;;4776462;29;20057;-88
2022/01/05 10:51:30;;;;;;;0.03;0.03;;;;;;;;;;4776869;29;20050;-88
2022/01/05 10:54:11;;;;;;;0.47;0.10;;;;;;;;;;4806504;29;20057;-90
2022/01/05 10:56:37;;;;;;;0.10;0.10;;;;;;;;;;4821756;29;20043;-89
2022/01/05 10:59:03;;;;;;;0.10;0.10;;;;;;;;;;4776841;29;20042;-89
2022/01/05 11:01:30;;;;;;;0.10;0.10;;;;;;;;;;4776488;29;20080;-87
2022/01/05 11:03:56;;;;;;;0.55;0.55;;;;;;;;;;4776721;29;20538;-87
2022/01/05 11:06:22;;;;;;;0.10;0.10;;;;;;;;;;4821744;29;20122;-88
2022/01/05 11:08:48;;;;;;;0.10;0.10;;;;;;;;;;4779843;29;20411;-88
2022/01/05 11:11:31;;;;;;;0.10;0.10;;;;;;;;;;4809905;29;20107;-88
2022/01/05 11:13:57;;;;;;;0.10;0.10;;;;;;;;;;4809973;29;20042;-88
2022/01/05 11:16:26;;;;;;;0.15;0.15;;;;;;;;;;4779834;29;20099;-88
2022/01/05 11:19:10;;;;;;;0.10;0.10;;;;;;;;;;4809806;29;20128;-88
2022/01/05 11:21:40;;;;;;;1.13;0.28;;;;;;;;;;4779650;29;20134;-88
2022/01/05 11:24:06;;;;;;;0.03;0.03;;;;;;;;;;4824555;29;20137;-88
2022/01/05 11:26:35;;;;;;;0.10;0.10;;;;;;;;;;4779425;29;20077;-87
2022/01/05 11:29:05;;;;;;;0.05;0.05;;;;;;;;;;4809487;29;20519;-88
2022/01/05 11:31:31;;;;;;;0.00;0.00;;;;;;;;;;4794466;29;20118;-88
2022/01/05 11:33:58;;;;;;;0.10;0.10;;;;;;;;;;4824504;29;20136;-88
2022/01/05 11:36:24;;;;;;;0.10;0.10;;;;;;;;;;4794306;29;20137;-88
2022/01/05 11:38:50;;;;;;;0.75;0.75;;;;;;;;;;4808947;29;20574;-88
2022/01/05 11:41:16;;;;;;;0.10;0.10;;;;;;;;;;4809071;29;20062;-88
2022/01/05 11:43:42;;;;;;;0.10;0.10;;;;;;;;;;4779210;29;20498;-88
2022/01/05 11:46:18;;;;;;;0.55;0.55;;;;;;;;;;4823966;29;20084;-87
2022/01/05 11:48:58;;;;;;;3.20;0.20;;;;;;;;;;4808898;29;20057;-87
2022/01/05 11:51:50;;;;;;;0.10;0.10;;;;;;;;;;4808771;29;20050;-88
2022/01/05 11:54:21;;;;;;;0.20;0.20;;;;;;;;;;4806429;29;20058;-88
2022/01/05 11:56:48;;;;;;;1.23;0.20;;;;;;;;;;4808738;29;20046;-86
2022/01/05 11:59:24;;;;;;;0.10;0.10;;;;;;;;;;4793822;29;20092;-86
2022/01/05 12:02:13;;;;;;;0.10;0.10;;;;;;;;;;4823597;29;20058;-87
2022/01/05 12:05:01;;;;;;;0.00;0.00;;;;;;;;;;4808731;29;20047;-86
2022/01/05 12:07:50;;;;;;;0.10;0.10;;;;;;;;;;4793535;29;20046;-87
2022/01/05 12:10:24;;;;;;;0.10;0.10;;;;;;;;;;4794242;29;20050;-87
2022/01/05 12:12:57;;;;;;;1.08;0.40;;;;;;;;;;4823647;29;20408;-85
2022/01/05 12:15:43;;;;;;;0.10;0.10;;;;;;;;;;4808200;29;20057;-87
2022/01/05 12:18:09;;;;;;;0.28;0.28;;;;;;;;;;4793475;29;20049;-86
2022/01/05 12:20:35;;;;;;;0.10;0.10;;;;;;;;;;4823505;29;20050;-87
2022/01/05 12:23:40;;;;;;;0.10;0.10;;;;;;;;;;4823441;29;20049;-88
2022/01/05 12:26:09;;;;;;;0.10;0.10;;;;;;;;;;4768765;30;20459;-87
2022/01/05 12:28:36;;;;;;;0.10;0.10;;;;;;;;;;4768788;30;20048;-87
2022/01/05 12:31:03;;;;;;;0.10;0.10;;;;;;;;;;4767186;29;20102;-87
2022/01/05 12:33:41;;;;;;;0.10;0.10;;;;;;;;;;4824097;29;20387;-88
2022/01/05 12:36:08;;;;;;;0.10;0.10;;;;;;;;;;4845477;29;20110;-88
2022/01/05 12:38:34;;;;;;;0.10;0.10;;;;;;;;;;4778791;29;20054;-88
2022/01/05 12:41:19;;;;;;;0.10;0.10;;;;;;;;;;4823188;29;20058;-88
2022/01/05 12:43:45;;;;;;;0.10;0.10;;;;;;;;;;4822973;29;20046;-88
2022/01/05 12:46:13;;;;;;;0.10;0.10;;;;;;;;;;4792909;29;20487;-87
2022/01/05 12:48:54;;;;;;;0.10;0.10;;;;;;;;;;4793160;29;20401;-86
2022/01/05 12:51:23;;;;;;;0.10;0.10;;;;;;;;;;4808108;29;20560;-86
2022/01/05 12:53:53;;;;;;;0.10;0.10;;;;;;;;;;4822855;29;20201;-86
2022/01/05 12:56:23;;;;;;;0.10;0.10;;;;;;;;;;4807636;29;20050;-88
2022/01/05 12:58:51;;;;;;;0.10;0.10;;;;;;;;;;4823198;29;20408;-86
2022/01/05 13:01:17;;;;;;;0.10;0.10;;;;;;;;;;4793157;29;20054;-87
2022/01/05 13:03:43;;;;;;;0.10;0.10;;;;;;;;;;4807583;29;20162;-86
2022/01/05 13:06:16;;;;;;;0.10;0.10;;;;;;;;;;4777772;29;20512;-86
2022/01/05 13:08:48;;;;;;;0.10;0.10;;;;;;;;;;4807673;29;20502;-86
2022/01/05 13:11:14;;;;;;;1.38;0.88;;;;;;;;;;4807629;29;20580;-87
2022/01/05 13:13:42;;;;;;;0.00;0.00;;;;;;;;;;4807687;29;20403;-87
2022/01/05 13:16:09;;;;;;;2.63;0.20;;;;;;;;;;4822751;29;20123;-88
2022/01/05 13:18:34;;;;;;;0.13;0.13;;;;;;;;;;4777915;29;20404;-88
2022/01/05 13:21:00;;;;;;;0.10;0.10;;;;;;;;;;4777894;29;20074;-90
2022/01/05 13:23:26;;;;;;;0.10;0.10;;;;;;;;;;4822690;29;20046;-89
2022/01/05 13:25:52;;;;;;;0.10;0.10;;;;;;;;;;4777846;29;20050;-88
2022/01/05 13:28:20;;;;;;;0.10;0.10;;;;;;;;;;4807432;29;20038;-87
2022/01/05 13:30:46;;;;;;;0.10;0.10;;;;;;;;;;4792303;29;20751;-88
2022/01/05 13:33:14;;;;;;;0.30;0.30;;;;;;;;;;4777668;29;20437;-87
2022/01/05 13:35:41;;;;;;;0.10;0.10;;;;;;;;;;4792654;29;20536;-87
2022/01/05 13:38:17;;;;;;;0.10;0.10;;;;;;;;;;4777425;29;20046;-87
2022/01/05 13:40:44;;;;;;;0.10;0.10;;;;;;;;;;4822233;29;20066;-88
2022/01/05 13:43:17;;;;;;;0.10;0.10;;;;;;;;;;4793189;29;20492;-95
2022/01/05 13:45:48;;;;;;;0.90;0.63;;;;;;;;;;4807701;29;20046;-91
2022/01/05 13:48:20;;;;;;;1.30;0.77;;;;;;;;;;4778083;29;20057;-93
2022/01/05 13:50:50;;;;;;;0.05;0.05;;;;;;;;;;4777767;29;20042;-92
2022/01/05 13:53:23;;;;;;;0.10;0.10;;;;;;;;;;4777715;29;20138;-90
2022/01/05 13:55:50;;;;;;;0.10;0.10;;;;;;;;;;4777360;29;20046;-89
2022/01/05 13:58:26;;;;;;;0.10;0.10;;;;;;;;;;4807218;29;20062;-90
2022/01/05 14:00:52;;;;;;;0.32;0.17;;;;;;;;;;4807228;29;20051;-91
2022/01/05 14:03:27;;;;;;;0.10;0.10;;;;;;;;;;4807037;29;20038;-91
2022/01/05 14:05:54;;;;;;;0.13;0.13;;;;;;;;;;4806862;29;20075;-90
2022/01/05 14:08:27;;;;;;;0.08;0.08;;;;;;;;;;4806878;29;20074;-89
2022/01/05 14:11:01;;;;;;;0.00;0.00;;;;;;;;;;4806737;29;20053;-90
2022/01/05 14:13:27;;;;;;;0.10;0.10;;;;;;;;;;4806337;29;20057;-90
2022/01/05 14:15:57;;;;;;;0.10;0.10;;;;;;;;;;4806607;29;20061;-90
2022/01/05 14:18:23;;;;;;;0.20;0.20;;;;;;;;;;4806444;29;20042;-91
2022/01/05 14:20:49;;;;;;;0.00;0.00;;;;;;;;;;4806457;29;20353;-90
2022/01/05 14:23:17;;;;;;;0.10;0.10;;;;;;;;;;4776841;29;20047;-90
2022/01/05 14:25:48;;;;;;;0.00;0.00;;;;;;;;;;4806801;29;20345;-90
2022/01/05 14:28:20;;;;;;;0.00;0.00;;;;;;;;;;4791662;29;20054;-89
2022/01/05 14:30:50;;;;;;;0.10;0.10;;;;;;;;;;4821777;29;20050;-89
2022/01/05 14:33:32;;;;;;;0.50;0.50;;;;;;;;;;4806685;29;20119;-91
2022/01/05 14:35:58;;;;;;;0.10;0.10;;;;;;;;;;4821683;29;20099;-90
2022/01/05 14:38:24;;;;;;;0.10;0.10;;;;;;;;;;4776822;29;20050;-90
2022/01/05 14:40:50;;;;;;;0.10;0.10;;;;;;;;;;4791656;29;20046;-92
2022/01/05 14:43:18;;;;;;;0.10;0.10;;;;;;;;;;4795064;29;20105;-93
2022/01/05 14:45:44;;;;;;;0.10;0.10;;;;;;;;;;4781347;29;20058;-91
2022/01/05 14:48:10;;;;;;;0.00;0.00;;;;;;;;;;4781411;29;20050;-92